Time;durP1;ratioP1;P1;durP2;ratioP2;P2;SDS_P1;SDS_P2;PMS_P1;PMS_P2;Temp;Humidity;BMP_temperature;BMP_pressure;BME280_temperature;BME280_humidity;BME280_pressure;Samples;Min_cycle;Max_cycle;Signal;HPM_P1;HPM_P2
2021/12/06 00:00:54;;;;;;;21.50;13.50;;;;;;;;;;4987713;28;20038;-66
2021/12/06 00:03:30;;;;;;;23.17;13.60;;;;;;;;;;4994290;28;20033;-64
2021/12/06 00:05:56;;;;;;;26.23;13.90;;;;;;;;;;4992427;28;20057;-65
2021/12/06 00:08:22;;;;;;;21.17;13.25;;;;;;;;;;4988854;28;20479;-64
2021/12/06 00:10:50;;;;;;;20.58;13.20;;;;;;;;;;4991608;28;20046;-64
2021/12/06 00:13:20;;;;;;;25.23;12.73;;;;;;;;;;4989722;28;20081;-65
2021/12/06 00:15:48;;;;;;;21.02;12.88;;;;;;;;;;4990548;28;20120;-65
2021/12/06 00:18:13;;;;;;;22.60;13.48;;;;;;;;;;4988867;28;20030;-65
2021/12/06 00:20:39;;;;;;;23.75;13.52;;;;;;;;;;4974636;28;20041;-65
2021/12/06 00:23:04;;;;;;;21.55;12.85;;;;;;;;;;4991618;28;20034;-64
2021/12/06 00:25:30;;;;;;;20.83;13.13;;;;;;;;;;4972510;28;20046;-64
2021/12/06 00:27:55;;;;;;;19.23;12.45;;;;;;;;;;4992485;28;20037;-65
2021/12/06 00:30:21;;;;;;;20.27;12.95;;;;;;;;;;4988312;28;20046;-65
2021/12/06 00:32:47;;;;;;;23.00;13.50;;;;;;;;;;4988685;28;20111;-65
2021/12/06 00:35:19;;;;;;;21.63;12.23;;;;;;;;;;4991899;28;20030;-66
2021/12/06 00:37:54;;;;;;;21.45;12.80;;;;;;;;;;4991654;28;20444;-65
2021/12/06 00:40:21;;;;;;;25.65;14.07;;;;;;;;;;4990418;28;20225;-65
2021/12/06 00:42:46;;;;;;;25.20;15.32;;;;;;;;;;4992422;28;20041;-65
2021/12/06 00:45:12;;;;;;;27.40;15.50;;;;;;;;;;4988423;28;20129;-68
2021/12/06 00:47:37;;;;;;;25.40;15.32;;;;;;;;;;4977186;28;20472;-65
2021/12/06 00:50:05;;;;;;;27.83;15.75;;;;;;;;;;4990553;28;20042;-65
2021/12/06 00:52:31;;;;;;;27.38;16.58;;;;;;;;;;4991432;28;20026;-65
2021/12/06 00:54:57;;;;;;;25.85;15.85;;;;;;;;;;4991139;28;20045;-66
2021/12/06 00:57:22;;;;;;;25.30;14.45;;;;;;;;;;4973409;28;20065;-64
2021/12/06 00:59:48;;;;;;;28.15;15.60;;;;;;;;;;4989541;28;20030;-65
2021/12/06 01:02:14;;;;;;;25.85;15.52;;;;;;;;;;4990699;28;20116;-65
2021/12/06 01:04:42;;;;;;;28.67;15.98;;;;;;;;;;4991545;28;20056;-64
2021/12/06 01:07:09;;;;;;;26.63;16.08;;;;;;;;;;4991544;28;20038;-64
2021/12/06 01:09:35;;;;;;;31.42;17.33;;;;;;;;;;4988258;28;20042;-64
2021/12/06 01:12:01;;;;;;;29.05;17.17;;;;;;;;;;4989721;28;20571;-64
2021/12/06 01:14:26;;;;;;;31.10;16.98;;;;;;;;;;4989603;28;20022;-66
2021/12/06 01:16:52;;;;;;;28.15;15.68;;;;;;;;;;4990324;28;20395;-64
2021/12/06 01:19:18;;;;;;;32.45;17.40;;;;;;;;;;4990315;28;20030;-65
2021/12/06 01:22:05;;;;;;;30.80;16.13;;;;;;;;;;4990306;28;20038;-64
2021/12/06 01:24:39;;;;;;;35.83;16.27;;;;;;;;;;4989672;28;20595;-64
2021/12/06 01:27:27;;;;;;;34.67;17.85;;;;;;;;;;4995694;28;20038;-64
2021/12/06 01:40:19;;;;;;;32.25;16.60;;;;;;;;;;4993825;28;20042;-64
2021/12/06 01:42:45;;;;;;;31.83;17.55;;;;;;;;;;4994047;28;20026;-63
2021/12/06 01:45:11;;;;;;;39.13;18.75;;;;;;;;;;4993761;28;20041;-66
2021/12/06 01:47:39;;;;;;;33.90;18.65;;;;;;;;;;4993606;28;20396;-64
2021/12/06 01:50:16;;;;;;;36.78;18.83;;;;;;;;;;4977062;28;20510;-63
2021/12/06 01:52:46;;;;;;;31.65;17.33;;;;;;;;;;4985964;28;20041;-65
2021/12/06 01:55:16;;;;;;;29.38;17.90;;;;;;;;;;4984886;28;20113;-66
2021/12/06 01:57:42;;;;;;;34.20;18.10;;;;;;;;;;4995029;28;20542;-64
2021/12/06 02:00:12;;;;;;;31.50;17.50;;;;;;;;;;4993475;28;20129;-64
2021/12/06 02:02:37;;;;;;;37.67;18.02;;;;;;;;;;4992594;28;20026;-65
2021/12/06 02:05:04;;;;;;;32.75;18.13;;;;;;;;;;4992709;28;20388;-64
2021/12/06 02:07:30;;;;;;;35.70;18.35;;;;;;;;;;4976666;28;20033;-64
2021/12/06 02:09:57;;;;;;;35.53;17.77;;;;;;;;;;4994642;28;20034;-64
2021/12/06 02:12:26;;;;;;;35.30;17.85;;;;;;;;;;4975398;28;20158;-64
2021/12/06 02:15:01;;;;;;;33.78;17.85;;;;;;;;;;4992384;28;20117;-64
2021/12/06 02:17:32;;;;;;;34.03;17.35;;;;;;;;;;4992732;28;20112;-64
2021/12/06 02:20:06;;;;;;;32.88;18.00;;;;;;;;;;4993761;28;20039;-64
2021/12/06 02:22:36;;;;;;;33.53;17.30;;;;;;;;;;4991657;28;20066;-64
2021/12/06 02:25:07;;;;;;;34.03;17.83;;;;;;;;;;4993700;28;20030;-64
2021/12/06 02:27:32;;;;;;;31.40;17.90;;;;;;;;;;4992618;28;20034;-64
2021/12/06 02:30:00;;;;;;;33.92;17.98;;;;;;;;;;4990352;28;20039;-65
2021/12/06 02:32:26;;;;;;;37.83;19.40;;;;;;;;;;4986413;28;20033;-66
2021/12/06 02:34:54;;;;;;;33.75;18.88;;;;;;;;;;4992611;28;20030;-64
2021/12/06 02:37:29;;;;;;;38.00;19.17;;;;;;;;;;4991274;28;20057;-64
2021/12/06 02:39:55;;;;;;;33.47;18.17;;;;;;;;;;4992265;28;20137;-64
2021/12/06 02:42:21;;;;;;;33.20;18.33;;;;;;;;;;4992674;28;20039;-64
2021/12/06 02:44:48;;;;;;;35.30;17.45;;;;;;;;;;4992255;28;20030;-64
2021/12/06 02:47:15;;;;;;;36.33;17.02;;;;;;;;;;4992790;28;20088;-65
2021/12/06 02:49:41;;;;;;;30.50;16.38;;;;;;;;;;4991809;28;20045;-63
2021/12/06 02:52:08;;;;;;;36.08;16.77;;;;;;;;;;4975864;28;20030;-63
2021/12/06 02:54:34;;;;;;;31.77;17.00;;;;;;;;;;4973182;28;20092;-63
2021/12/06 02:57:32;;;;;;;28.58;15.65;;;;;;;;;;4983854;28;20049;-64
2021/12/06 02:59:47;;;;;;;30.00;15.73;;;;;;;;;;4991528;28;20077;-65
2021/12/06 03:02:17;;;;;;;28.98;16.10;;;;;;;;;;4992117;28;20128;-63
2021/12/06 03:04:43;;;;;;;30.80;14.98;;;;;;;;;;4992780;28;20041;-63
2021/12/06 03:07:09;;;;;;;24.73;14.55;;;;;;;;;;4992752;28;20494;-64
2021/12/06 03:09:37;;;;;;;28.80;16.05;;;;;;;;;;4992533;28;20038;-63
2021/12/06 03:12:03;;;;;;;29.17;15.68;;;;;;;;;;4992310;28;20073;-63
2021/12/06 03:14:35;;;;;;;30.73;15.50;;;;;;;;;;4991150;28;20499;-64
2021/12/06 03:17:03;;;;;;;30.00;15.95;;;;;;;;;;4991661;28;20384;-63
2021/12/06 03:19:28;;;;;;;30.33;15.20;;;;;;;;;;4991420;28;20060;-64
2021/12/06 03:21:54;;;;;;;37.72;16.70;;;;;;;;;;4994153;28;20109;-63
2021/12/06 03:24:20;;;;;;;31.20;16.92;;;;;;;;;;4992633;28;20034;-66
2021/12/06 03:26:46;;;;;;;33.42;17.15;;;;;;;;;;4992914;28;20034;-63
2021/12/06 03:29:13;;;;;;;28.70;16.40;;;;;;;;;;4992742;28;20034;-63
2021/12/06 03:31:39;;;;;;;29.98;16.08;;;;;;;;;;4989662;28;20022;-63
2021/12/06 03:34:07;;;;;;;27.40;15.32;;;;;;;;;;4993330;28;20400;-63
2021/12/06 03:36:35;;;;;;;31.85;14.93;;;;;;;;;;4989847;28;20035;-63
2021/12/06 03:39:05;;;;;;;28.17;15.82;;;;;;;;;;4991428;28;20491;-63
2021/12/06 03:41:30;;;;;;;25.88;14.63;;;;;;;;;;4991183;28;20499;-63
2021/12/06 03:43:58;;;;;;;28.15;15.07;;;;;;;;;;4993467;28;20034;-63
2021/12/06 03:46:25;;;;;;;22.75;14.13;;;;;;;;;;4990488;28;20117;-64
2021/12/06 03:48:51;;;;;;;26.85;14.43;;;;;;;;;;4979363;28;20043;-63
2021/12/06 03:51:16;;;;;;;34.58;16.48;;;;;;;;;;4981753;28;20089;-63
2021/12/06 03:53:42;;;;;;;39.85;16.02;;;;;;;;;;4991568;28;20223;-63
2021/12/06 03:56:08;;;;;;;37.55;16.88;;;;;;;;;;4990159;28;20050;-63
2021/12/06 03:58:34;;;;;;;31.30;15.77;;;;;;;;;;4992111;28;20062;-63
2021/12/06 04:01:02;;;;;;;34.65;17.23;;;;;;;;;;4991797;28;20038;-64
2021/12/06 04:03:28;;;;;;;33.38;17.52;;;;;;;;;;4991864;28;20486;-63
2021/12/06 04:05:54;;;;;;;35.85;18.15;;;;;;;;;;4991956;28;20031;-63
2021/12/06 04:08:20;;;;;;;36.22;17.52;;;;;;;;;;4992622;28;20034;-66
2021/12/06 04:10:45;;;;;;;36.47;17.25;;;;;;;;;;4990839;28;20050;-63
2021/12/06 04:13:11;;;;;;;32.80;17.08;;;;;;;;;;4991724;28;20076;-63
2021/12/06 04:15:39;;;;;;;29.38;15.73;;;;;;;;;;4990144;28;20377;-63
2021/12/06 04:18:04;;;;;;;30.30;16.55;;;;;;;;;;4971115;28;20035;-62
2021/12/06 04:20:30;;;;;;;33.00;16.80;;;;;;;;;;4986345;28;20042;-63
2021/12/06 04:22:56;;;;;;;33.13;17.02;;;;;;;;;;4992361;28;20408;-62
2021/12/06 04:25:22;;;;;;;31.55;16.90;;;;;;;;;;4989972;28;20038;-65
2021/12/06 04:27:53;;;;;;;34.17;17.13;;;;;;;;;;4992285;28;20061;-62
2021/12/06 04:30:20;;;;;;;35.35;16.65;;;;;;;;;;4974215;28;20056;-63
2021/12/06 04:32:47;;;;;;;35.30;17.50;;;;;;;;;;4991204;28;20038;-63
2021/12/06 04:35:12;;;;;;;35.00;17.55;;;;;;;;;;4973131;28;20041;-63
2021/12/06 04:37:38;;;;;;;36.60;17.23;;;;;;;;;;4990511;28;20039;-62
2021/12/06 04:40:05;;;;;;;38.30;17.45;;;;;;;;;;4991687;28;20121;-63
2021/12/06 04:42:31;;;;;;;31.88;16.73;;;;;;;;;;4990818;28;20038;-63
2021/12/06 04:44:56;;;;;;;37.67;17.77;;;;;;;;;;4992121;28;20030;-63
2021/12/06 04:47:21;;;;;;;37.05;17.70;;;;;;;;;;4971718;28;20034;-65
2021/12/06 04:49:47;;;;;;;33.75;17.45;;;;;;;;;;4989617;28;20062;-62
2021/12/06 04:52:17;;;;;;;37.45;17.65;;;;;;;;;;4991023;28;20450;-62
2021/12/06 04:54:47;;;;;;;34.20;17.05;;;;;;;;;;4990353;28;20122;-62
2021/12/06 04:57:24;;;;;;;36.92;17.33;;;;;;;;;;4984473;28;20034;-62
2021/12/06 04:59:54;;;;;;;35.90;17.08;;;;;;;;;;4982933;28;20042;-62
2021/12/06 05:02:26;;;;;;;42.85;17.55;;;;;;;;;;4994231;28;20391;-63
2021/12/06 05:04:54;;;;;;;35.90;17.80;;;;;;;;;;4995236;28;20404;-63
2021/12/06 05:07:30;;;;;;;40.58;16.90;;;;;;;;;;4994035;28;20031;-62
2021/12/06 05:09:56;;;;;;;37.05;17.10;;;;;;;;;;4995234;28;20117;-62
2021/12/06 05:12:27;;;;;;;41.45;17.92;;;;;;;;;;4993253;28;20133;-62
2021/12/06 05:14:52;;;;;;;38.53;17.83;;;;;;;;;;4994105;28;20046;-62
2021/12/06 05:17:18;;;;;;;50.33;20.15;;;;;;;;;;4993379;28;20399;-62
2021/12/06 05:19:44;;;;;;;54.83;20.50;;;;;;;;;;4993253;28;20030;-65
2021/12/06 05:22:09;;;;;;;63.40;22.30;;;;;;;;;;4992675;28;20464;-63
2021/12/06 05:24:36;;;;;;;60.10;22.40;;;;;;;;;;4993781;28;20030;-62
2021/12/06 05:27:04;;;;;;;53.85;21.30;;;;;;;;;;4994705;28;20034;-61
2021/12/06 05:29:30;;;;;;;57.20;20.30;;;;;;;;;;4995310;28;20034;-63
2021/12/06 05:31:58;;;;;;;54.35;20.90;;;;;;;;;;4996062;28;20045;-63
2021/12/06 05:34:38;;;;;;;48.92;19.35;;;;;;;;;;4996135;28;20049;-63
2021/12/06 05:37:09;;;;;;;46.05;18.38;;;;;;;;;;4996913;28;20061;-63
2021/12/06 05:39:34;;;;;;;46.15;19.30;;;;;;;;;;4977414;28;20034;-64
2021/12/06 05:42:05;;;;;;;42.25;18.40;;;;;;;;;;4994744;28;20185;-64
2021/12/06 05:44:31;;;;;;;40.20;17.80;;;;;;;;;;4976394;28;20042;-63
2021/12/06 05:46:58;;;;;;;45.83;18.33;;;;;;;;;;4995477;28;20031;-62
2021/12/06 05:49:23;;;;;;;47.40;19.83;;;;;;;;;;4995451;28;20034;-63
2021/12/06 05:51:49;;;;;;;57.78;21.40;;;;;;;;;;4994794;28;20375;-63
2021/12/06 05:54:15;;;;;;;62.88;21.27;;;;;;;;;;4993793;28;20042;-63
2021/12/06 05:56:41;;;;;;;71.32;21.40;;;;;;;;;;4993977;28;20038;-63
2021/12/06 05:59:06;;;;;;;63.05;20.08;;;;;;;;;;4995375;28;20109;-62
2021/12/06 06:01:32;;;;;;;69.18;21.23;;;;;;;;;;4994011;28;20082;-62
2021/12/06 06:04:01;;;;;;;73.18;22.40;;;;;;;;;;4992991;28;20077;-61
2021/12/06 06:06:29;;;;;;;78.40;21.25;;;;;;;;;;4994569;28;20030;-69
2021/12/06 06:08:55;;;;;;;115.63;22.77;;;;;;;;;;4994804;28;20081;-66
2021/12/06 06:11:20;;;;;;;164.32;24.73;;;;;;;;;;4993629;28;20070;-64
2021/12/06 06:13:46;;;;;;;138.60;22.17;;;;;;;;;;4994157;28;20031;-64
2021/12/06 06:16:11;;;;;;;190.13;27.42;;;;;;;;;;4994622;28;20181;-64
2021/12/06 06:18:36;;;;;;;99.00;21.08;;;;;;;;;;4976240;28;20104;-65
2021/12/06 06:21:02;;;;;;;148.25;21.52;;;;;;;;;;4992680;28;20159;-65
2021/12/06 06:23:28;;;;;;;149.32;21.30;;;;;;;;;;4993453;28;20034;-69
2021/12/06 06:25:54;;;;;;;95.00;20.45;;;;;;;;;;4993992;28;20046;-64
2021/12/06 06:28:20;;;;;;;153.35;21.45;;;;;;;;;;4994747;28;20149;-64
2021/12/06 06:30:45;;;;;;;82.47;19.17;;;;;;;;;;4992104;28;20060;-63
2021/12/06 06:33:11;;;;;;;54.95;17.67;;;;;;;;;;4994345;28;20084;-63
2021/12/06 06:35:37;;;;;;;82.75;18.05;;;;;;;;;;4992596;28;20042;-64
2021/12/06 06:38:02;;;;;;;74.22;17.45;;;;;;;;;;4994224;28;20030;-63
2021/12/06 06:40:28;;;;;;;59.05;17.45;;;;;;;;;;4993759;28;20108;-64
2021/12/06 06:42:53;;;;;;;77.18;18.17;;;;;;;;;;4993736;28;20074;-64
2021/12/06 06:45:21;;;;;;;90.28;18.63;;;;;;;;;;4993626;28;20085;-63
2021/12/06 06:47:47;;;;;;;44.22;17.10;;;;;;;;;;4992331;28;20125;-60
2021/12/06 06:50:13;;;;;;;96.95;18.77;;;;;;;;;;4992863;28;20134;-65
2021/12/06 06:52:39;;;;;;;64.50;17.60;;;;;;;;;;4992888;28;20396;-61
2021/12/06 06:55:06;;;;;;;63.72;18.02;;;;;;;;;;4976215;28;20036;-62
2021/12/06 06:57:32;;;;;;;84.95;17.85;;;;;;;;;;4975516;28;20041;-62
2021/12/06 06:59:58;;;;;;;55.25;17.23;;;;;;;;;;4993560;28;20038;-62
2021/12/06 07:02:24;;;;;;;90.30;18.55;;;;;;;;;;4993962;28;20031;-62
2021/12/06 07:04:49;;;;;;;80.45;18.45;;;;;;;;;;4992687;28;20037;-61
2021/12/06 07:07:15;;;;;;;139.98;19.88;;;;;;;;;;4992795;28;20030;-61
2021/12/06 07:09:43;;;;;;;58.10;17.63;;;;;;;;;;4992596;28;20065;-63
2021/12/06 07:12:14;;;;;;;101.38;18.67;;;;;;;;;;4975467;28;20464;-64
2021/12/06 07:14:39;;;;;;;39.90;16.83;;;;;;;;;;4992734;28;20034;-61
2021/12/06 07:17:05;;;;;;;118.32;21.23;;;;;;;;;;4993397;28;20358;-61
2021/12/06 07:19:31;;;;;;;97.57;20.77;;;;;;;;;;4992390;28;20563;-65
2021/12/06 07:21:58;;;;;;;119.22;24.33;;;;;;;;;;4993360;28;20110;-63
2021/12/06 07:24:24;;;;;;;127.75;22.70;;;;;;;;;;4975692;28;20027;-62
2021/12/06 07:26:49;;;;;;;163.63;22.92;;;;;;;;;;4992721;28;20237;-63
2021/12/06 07:29:15;;;;;;;234.93;24.45;;;;;;;;;;4993114;28;20456;-64
2021/12/06 07:31:40;;;;;;;112.63;22.60;;;;;;;;;;4988766;28;20026;-62
2021/12/06 07:34:06;;;;;;;93.43;21.98;;;;;;;;;;4995907;28;20034;-62
2021/12/06 07:36:31;;;;;;;96.53;23.30;;;;;;;;;;4992258;28;20060;-66
2021/12/06 07:38:57;;;;;;;96.05;23.63;;;;;;;;;;4992251;28;20031;-61
2021/12/06 07:41:23;;;;;;;99.53;20.83;;;;;;;;;;4992383;28;20057;-64
2021/12/06 07:43:50;;;;;;;94.85;21.85;;;;;;;;;;4992121;28;20623;-62
2021/12/06 07:46:15;;;;;;;77.30;21.63;;;;;;;;;;4975324;28;20468;-66
2021/12/06 07:48:41;;;;;;;53.45;20.75;;;;;;;;;;4991907;28;20109;-65
2021/12/06 07:51:07;;;;;;;57.88;19.35;;;;;;;;;;4974704;28;20505;-65
2021/12/06 07:53:35;;;;;;;65.57;20.75;;;;;;;;;;4992223;28;20026;-67
2021/12/06 07:56:01;;;;;;;94.85;21.92;;;;;;;;;;4992655;28;20036;-64
2021/12/06 07:58:26;;;;;;;107.05;22.27;;;;;;;;;;4992417;28;20092;-62
2021/12/06 08:00:55;;;;;;;84.63;21.73;;;;;;;;;;4991291;28;20022;-66
2021/12/06 08:03:22;;;;;;;51.97;21.27;;;;;;;;;;4990605;28;20488;-66
2021/12/06 08:05:50;;;;;;;92.93;21.77;;;;;;;;;;4992273;28;20074;-64
2021/12/06 08:08:25;;;;;;;76.78;21.33;;;;;;;;;;4974986;28;20089;-64
2021/12/06 08:10:54;;;;;;;75.57;19.92;;;;;;;;;;4991601;28;20058;-66
2021/12/06 08:13:23;;;;;;;75.13;19.85;;;;;;;;;;4992149;28;20496;-65
2021/12/06 08:15:52;;;;;;;100.00;21.48;;;;;;;;;;4991094;28;20034;-64
2021/12/06 08:18:18;;;;;;;91.45;22.70;;;;;;;;;;4992271;28;20535;-63
2021/12/06 08:20:44;;;;;;;102.85;22.23;;;;;;;;;;4990256;28;20109;-64
2021/12/06 08:23:10;;;;;;;128.98;24.85;;;;;;;;;;4991403;28;20049;-65
2021/12/06 08:25:36;;;;;;;90.75;21.75;;;;;;;;;;4990949;28;20507;-66
2021/12/06 08:28:02;;;;;;;93.78;23.00;;;;;;;;;;4992319;28;20034;-66
2021/12/06 08:30:27;;;;;;;57.40;21.77;;;;;;;;;;4991930;28;20042;-65
2021/12/06 08:32:56;;;;;;;107.75;23.45;;;;;;;;;;4991166;28;20100;-67
2021/12/06 08:35:22;;;;;;;124.13;21.90;;;;;;;;;;4990860;28;20034;-65
2021/12/06 08:37:47;;;;;;;109.53;22.70;;;;;;;;;;4990119;28;20037;-67
2021/12/06 08:40:15;;;;;;;68.97;21.83;;;;;;;;;;4989272;28;20026;-65
2021/12/06 08:42:41;;;;;;;134.98;23.45;;;;;;;;;;4990984;28;20034;-66
2021/12/06 08:45:09;;;;;;;128.55;24.00;;;;;;;;;;4991750;28;20395;-66
2021/12/06 08:47:35;;;;;;;102.43;22.80;;;;;;;;;;4991271;28;20421;-68
2021/12/06 08:50:01;;;;;;;60.58;21.25;;;;;;;;;;4991358;28;20078;-68
2021/12/06 08:52:27;;;;;;;106.70;22.83;;;;;;;;;;4992369;28;20413;-66
2021/12/06 08:54:52;;;;;;;111.15;23.00;;;;;;;;;;4991078;28;20121;-66
2021/12/06 08:57:18;;;;;;;71.10;21.15;;;;;;;;;;4991976;28;20158;-68
2021/12/06 08:59:44;;;;;;;156.05;24.63;;;;;;;;;;4991263;28;20026;-66
2021/12/06 09:02:09;;;;;;;102.30;22.40;;;;;;;;;;4992047;28;20038;-65
2021/12/06 09:04:38;;;;;;;147.65;22.10;;;;;;;;;;4990714;28;20030;-70
2021/12/06 09:07:11;;;;;;;118.03;23.67;;;;;;;;;;4991362;28;20045;-68
2021/12/06 09:09:45;;;;;;;94.95;22.63;;;;;;;;;;4991403;28;20027;-70
2021/12/06 09:12:11;;;;;;;78.70;22.95;;;;;;;;;;4991881;28;20097;-70
2021/12/06 09:14:36;;;;;;;59.90;21.42;;;;;;;;;;4990641;28;20038;-70
2021/12/06 09:17:02;;;;;;;79.82;23.83;;;;;;;;;;4991527;28;20040;-66
2021/12/06 09:19:27;;;;;;;114.13;23.80;;;;;;;;;;4991581;28;20439;-65
2021/12/06 09:21:53;;;;;;;125.25;23.73;;;;;;;;;;4973175;28;20113;-68
2021/12/06 09:24:20;;;;;;;83.05;20.45;;;;;;;;;;4973817;28;20084;-68
2021/12/06 09:26:46;;;;;;;150.77;21.92;;;;;;;;;;4989937;28;20050;-68
2021/12/06 09:29:12;;;;;;;53.58;20.63;;;;;;;;;;4991395;28;20244;-68
2021/12/06 09:31:38;;;;;;;79.97;21.38;;;;;;;;;;4991394;28;20042;-68
2021/12/06 09:34:03;;;;;;;102.32;24.17;;;;;;;;;;4991210;28;20141;-68
2021/12/06 09:36:30;;;;;;;92.03;23.50;;;;;;;;;;4991692;28;20030;-67
2021/12/06 09:38:55;;;;;;;102.22;22.55;;;;;;;;;;4990801;28;20023;-70
2021/12/06 09:41:25;;;;;;;123.55;23.63;;;;;;;;;;4991315;28;20179;-69
2021/12/06 09:43:54;;;;;;;107.07;24.70;;;;;;;;;;4990868;28;20031;-69
2021/12/06 09:46:20;;;;;;;104.45;23.95;;;;;;;;;;4964616;28;20030;-70
2021/12/06 09:48:47;;;;;;;120.45;24.90;;;;;;;;;;4993461;28;20118;-66
2021/12/06 09:51:17;;;;;;;197.68;25.45;;;;;;;;;;4994466;28;20053;-66
2021/12/06 09:53:45;;;;;;;112.10;23.88;;;;;;;;;;4993636;28;20038;-66
2021/12/06 09:56:15;;;;;;;78.65;23.45;;;;;;;;;;4995201;28;20038;-66
2021/12/06 09:58:42;;;;;;;97.05;26.27;;;;;;;;;;4994120;28;20049;-71
2021/12/06 10:01:21;;;;;;;146.32;26.85;;;;;;;;;;4994491;28;20041;-69
2021/12/06 10:03:49;;;;;;;150.50;25.67;;;;;;;;;;4974487;28;20041;-69
2021/12/06 10:06:18;;;;;;;115.45;27.15;;;;;;;;;;4977444;28;20388;-70
2021/12/06 10:08:46;;;;;;;104.28;27.27;;;;;;;;;;4991812;28;20030;-65
2021/12/06 10:11:14;;;;;;;111.80;24.73;;;;;;;;;;4994431;28;20058;-64
2021/12/06 10:13:40;;;;;;;103.90;24.50;;;;;;;;;;4995557;28;20034;-69
2021/12/06 10:16:06;;;;;;;100.45;22.45;;;;;;;;;;4996430;28;20062;-66
2021/12/06 10:18:32;;;;;;;72.57;22.73;;;;;;;;;;4995381;28;20427;-66
2021/12/06 10:20:59;;;;;;;59.72;21.77;;;;;;;;;;4993545;28;20061;-67
2021/12/06 10:23:24;;;;;;;55.78;21.42;;;;;;;;;;4994609;28;20034;-66
2021/12/06 10:25:52;;;;;;;67.00;22.38;;;;;;;;;;4993574;28;20027;-70
2021/12/06 10:28:19;;;;;;;77.35;21.23;;;;;;;;;;4993610;28;20022;-70
2021/12/06 10:30:49;;;;;;;59.03;21.55;;;;;;;;;;4993208;28;20062;-66
2021/12/06 10:33:19;;;;;;;61.60;21.08;;;;;;;;;;4995222;28;20027;-66
2021/12/06 10:35:48;;;;;;;91.55;20.27;;;;;;;;;;4993409;28;20034;-65
2021/12/06 10:38:24;;;;;;;69.05;20.73;;;;;;;;;;4993728;28;20381;-65
2021/12/06 10:40:56;;;;;;;56.03;20.33;;;;;;;;;;4993157;28;20057;-74
2021/12/06 10:43:21;;;;;;;60.83;20.25;;;;;;;;;;4994061;28;20483;-68
2021/12/06 10:45:50;;;;;;;64.82;20.65;;;;;;;;;;4993693;28;20113;-68
2021/12/06 10:48:20;;;;;;;59.10;20.48;;;;;;;;;;4976739;28;20431;-66
2021/12/06 10:50:56;;;;;;;61.83;22.23;;;;;;;;;;4993556;28;20110;-66
2021/12/06 10:53:40;;;;;;;70.05;21.63;;;;;;;;;;4994179;28;20079;-68
2021/12/06 10:56:14;;;;;;;46.22;20.27;;;;;;;;;;4975899;28;20526;-69
2021/12/06 10:58:40;;;;;;;57.60;21.55;;;;;;;;;;4993170;28;20101;-70
2021/12/06 11:01:14;;;;;;;58.05;21.23;;;;;;;;;;4976188;28;20168;-69
2021/12/06 11:03:51;;;;;;;59.65;20.88;;;;;;;;;;4993165;28;20105;-68
2021/12/06 11:06:30;;;;;;;45.03;20.25;;;;;;;;;;4994061;28;20037;-68
2021/12/06 11:08:58;;;;;;;48.35;20.63;;;;;;;;;;4991788;28;20033;-68
2021/12/06 11:11:31;;;;;;;48.42;20.55;;;;;;;;;;4975441;28;20104;-68
2021/12/06 11:14:22;;;;;;;39.55;19.10;;;;;;;;;;4990185;28;20546;-69
2021/12/06 11:16:54;;;;;;;46.08;19.38;;;;;;;;;;4991717;28;20038;-68
2021/12/06 11:19:23;;;;;;;43.38;20.90;;;;;;;;;;4992458;28;20403;-68
2021/12/06 11:22:00;;;;;;;47.38;21.08;;;;;;;;;;4992632;28;20034;-68
2021/12/06 11:24:30;;;;;;;64.65;21.45;;;;;;;;;;4992125;28;20109;-69
2021/12/06 11:26:58;;;;;;;46.20;21.00;;;;;;;;;;4980479;28;20049;-67
2021/12/06 11:29:32;;;;;;;47.65;20.00;;;;;;;;;;4993579;28;20034;-68
2021/12/06 11:32:09;;;;;;;61.75;20.17;;;;;;;;;;4992922;28;20066;-68
2021/12/06 11:34:43;;;;;;;47.00;19.30;;;;;;;;;;4993007;28;20177;-67
2021/12/06 11:37:13;;;;;;;48.22;20.70;;;;;;;;;;4975723;28;20072;-67
2021/12/06 11:39:39;;;;;;;46.22;19.60;;;;;;;;;;4992862;28;20034;-67
2021/12/06 11:42:05;;;;;;;50.42;21.90;;;;;;;;;;4992304;28;20034;-69
2021/12/06 11:44:34;;;;;;;108.60;21.40;;;;;;;;;;4992988;28;20373;-67
2021/12/06 11:47:07;;;;;;;61.33;21.13;;;;;;;;;;4991460;28;20031;-66
2021/12/06 11:49:47;;;;;;;79.97;21.92;;;;;;;;;;4975547;28;20041;-67
2021/12/06 11:52:19;;;;;;;56.40;21.13;;;;;;;;;;4993047;28;20030;-68
2021/12/06 11:55:00;;;;;;;46.30;20.77;;;;;;;;;;4974679;28;20038;-69
2021/12/06 11:57:32;;;;;;;42.72;20.05;;;;;;;;;;4991898;28;20042;-66
2021/12/06 12:00:13;;;;;;;48.13;20.35;;;;;;;;;;4991751;28;20121;-68
2021/12/06 12:02:53;;;;;;;51.08;20.80;;;;;;;;;;4992678;28;20406;-68
2021/12/06 12:05:26;;;;;;;83.10;22.08;;;;;;;;;;4992544;28;20114;-69
2021/12/06 12:07:55;;;;;;;65.57;22.08;;;;;;;;;;4974344;28;20034;-66
2021/12/06 12:10:34;;;;;;;75.38;21.85;;;;;;;;;;4992121;28;20038;-67
2021/12/06 12:13:01;;;;;;;85.45;27.83;;;;;;;;;;4991909;28;20464;-68
2021/12/06 12:15:27;;;;;;;57.55;25.30;;;;;;;;;;4991953;28;20038;-69
2021/12/06 12:17:53;;;;;;;55.38;22.60;;;;;;;;;;4991511;28;20034;-69
2021/12/06 12:20:23;;;;;;;53.80;22.52;;;;;;;;;;4974582;28;20026;-67
2021/12/06 12:22:50;;;;;;;63.50;22.55;;;;;;;;;;4991285;28;20103;-68
2021/12/06 12:25:27;;;;;;;46.80;21.08;;;;;;;;;;4986147;28;20038;-67
2021/12/06 12:28:09;;;;;;;52.80;21.88;;;;;;;;;;4991182;28;20041;-67
2021/12/06 12:30:35;;;;;;;44.42;20.65;;;;;;;;;;4991977;28;20500;-67
2021/12/06 12:33:03;;;;;;;46.83;21.73;;;;;;;;;;4987826;28;20054;-67
2021/12/06 12:35:30;;;;;;;48.25;21.30;;;;;;;;;;4992314;28;20029;-64
2021/12/06 12:37:57;;;;;;;45.95;22.52;;;;;;;;;;4972051;28;20473;-67
2021/12/06 12:40:26;;;;;;;50.85;22.13;;;;;;;;;;4991396;28;20113;-69
2021/12/06 12:43:03;;;;;;;48.92;20.88;;;;;;;;;;4991304;28;20105;-68
2021/12/06 12:45:38;;;;;;;44.85;20.63;;;;;;;;;;4992194;28;20046;-69
2021/12/06 12:48:03;;;;;;;42.33;22.08;;;;;;;;;;4988240;28;20048;-65
2021/12/06 12:50:32;;;;;;;46.58;21.13;;;;;;;;;;4991749;28;20476;-65
2021/12/06 12:53:06;;;;;;;45.17;21.50;;;;;;;;;;4988601;28;20088;-65
2021/12/06 12:55:34;;;;;;;49.03;21.75;;;;;;;;;;4974162;28;20038;-65
2021/12/06 12:58:05;;;;;;;44.67;21.98;;;;;;;;;;4991240;28;20101;-68
2021/12/06 13:00:31;;;;;;;;;;;;;;;;;;4992673;28;20039;-66
2021/12/06 13:02:57;;;;;;;48.30;21.77;;;;;;;;;;4991229;28;19918;-68
2021/12/06 13:05:29;;;;;;;47.95;22.92;;;;;;;;;;4990436;28;20037;-66
2021/12/06 13:08:02;;;;;;;44.90;22.48;;;;;;;;;;4990533;28;20034;-66
2021/12/06 13:10:39;;;;;;;45.00;22.52;;;;;;;;;;4991770;28;20369;-67
2021/12/06 13:13:31;;;;;;;49.63;23.02;;;;;;;;;;4973787;28;20092;-66
2021/12/06 13:16:08;;;;;;;46.20;22.98;;;;;;;;;;4990188;28;20039;-68
2021/12/06 13:18:48;;;;;;;48.55;22.85;;;;;;;;;;4974451;28;20042;-67
2021/12/06 13:21:54;;;;;;;48.47;22.50;;;;;;;;;;4994053;28;20077;-68
2021/12/06 13:24:19;;;;;;;49.92;22.15;;;;;;;;;;4994799;28;20062;-68
2021/12/06 13:26:57;;;;;;;55.53;25.80;;;;;;;;;;4995702;28;20057;-68
2021/12/06 13:29:50;;;;;;;47.85;22.55;;;;;;;;;;4996019;28;20038;-68
2021/12/06 13:32:26;;;;;;;46.90;23.40;;;;;;;;;;4991982;28;20122;-66
2021/12/06 13:35:14;;;;;;;54.63;23.90;;;;;;;;;;4993954;28;20036;-66
2021/12/06 13:37:40;;;;;;;57.03;22.75;;;;;;;;;;4994902;28;20030;-65
2021/12/06 13:40:20;;;;;;;52.53;22.67;;;;;;;;;;4992733;28;20038;-66
2021/12/06 13:42:48;;;;;;;57.97;24.42;;;;;;;;;;4990889;28;20054;-66
2021/12/06 13:45:19;;;;;;;93.70;27.00;;;;;;;;;;4994944;28;20150;-65
2021/12/06 13:48:08;;;;;;;88.00;26.23;;;;;;;;;;4994536;28;20415;-65
2021/12/06 13:50:33;;;;;;;62.85;25.15;;;;;;;;;;4995506;28;20113;-66
2021/12/06 13:52:59;;;;;;;65.10;26.25;;;;;;;;;;4994402;28;20118;-66
2021/12/06 13:55:32;;;;;;;68.03;26.40;;;;;;;;;;4994977;28;20109;-65
2021/12/06 13:58:07;;;;;;;60.10;25.02;;;;;;;;;;4993418;28;20049;-66
2021/12/06 14:00:43;;;;;;;56.60;25.13;;;;;;;;;;4994461;28;20030;-66
2021/12/06 14:03:13;;;;;;;59.08;26.10;;;;;;;;;;4976950;28;20045;-66
2021/12/06 14:05:48;;;;;;;60.53;25.73;;;;;;;;;;4994781;28;20034;-68
2021/12/06 14:08:22;;;;;;;62.33;26.50;;;;;;;;;;4976712;28;20292;-65
2021/12/06 14:10:50;;;;;;;64.45;26.83;;;;;;;;;;4993111;28;20039;-67
2021/12/06 14:13:16;;;;;;;62.58;25.98;;;;;;;;;;4994349;28;20038;-67
2021/12/06 14:18:11;;;;;;;64.00;26.77;;;;;;;;;;4994055;28;20045;-66
2021/12/06 14:20:38;;;;;;;68.10;27.23;;;;;;;;;;4976888;28;20026;-68
2021/12/06 14:23:06;;;;;;;63.17;26.73;;;;;;;;;;4994015;28;20030;-68
2021/12/06 14:25:34;;;;;;;60.40;26.65;;;;;;;;;;4993799;28;20061;-65
2021/12/06 14:27:59;;;;;;;60.92;25.23;;;;;;;;;;4993508;28;20033;-67
2021/12/06 14:30:25;;;;;;;55.33;25.02;;;;;;;;;;4977084;28;20038;-66
2021/12/06 14:32:57;;;;;;;64.82;26.77;;;;;;;;;;4992816;28;20360;-69
2021/12/06 14:35:24;;;;;;;62.08;25.75;;;;;;;;;;4994597;28;20034;-67
2021/12/06 14:37:50;;;;;;;56.33;25.15;;;;;;;;;;4993956;28;20026;-67